Time;durP1;ratioP1;P1;durP2;ratioP2;P2;SDS_P1;SDS_P2;PMS_P1;PMS_P2;Temp;Humidity;BMP_temperature;BMP_pressure;BME280_temperature;BME280_humidity;BME280_pressure;Samples;Min_cycle;Max_cycle;Signal;HPM_P1;HPM_P2
2022/04/05 00:01:05;;;;;;;4.30;2.63;;;1.50;59.80;;;;;;5074387;28;20024;-78
2022/04/05 00:03:30;;;;;;;3.92;2.80;;;1.40;60.00;;;;;;5074575;28;20031;-78
2022/04/05 00:05:56;;;;;;;5.13;2.63;;;1.40;60.20;;;;;;5092272;28;20040;-78
2022/04/05 00:08:22;;;;;;;6.00;2.95;;;1.40;60.50;;;;;;5091357;28;20160;-78
2022/04/05 00:10:48;;;;;;;3.33;2.95;;;1.40;60.60;;;;;;5092036;28;20031;-79
2022/04/05 00:13:13;;;;;;;4.43;2.65;;;1.50;60.50;;;;;;5092114;28;20124;-77
2022/04/05 00:15:42;;;;;;;5.30;2.55;;;1.50;60.70;;;;;;5092284;28;20054;-78
2022/04/05 00:18:08;;;;;;;5.10;3.10;;;1.60;60.60;;;;;;5094284;28;20020;-78
2022/04/05 00:20:34;;;;;;;5.60;3.22;;;1.70;60.60;;;;;;5097223;28;20057;-78
2022/04/05 00:23:00;;;;;;;4.47;3.20;;;1.80;60.50;;;;;;5092824;28;20100;-77
2022/04/05 00:25:26;;;;;;;4.47;2.58;;;1.80;60.30;;;;;;5091535;28;20032;-78
2022/04/05 00:27:52;;;;;;;4.25;2.85;;;1.90;60.30;;;;;;5073354;28;20038;-77
2022/04/05 00:30:19;;;;;;;7.20;3.50;;;1.90;60.00;;;;;;5092703;28;20024;-78
2022/04/05 00:32:45;;;;;;;4.53;3.30;;;2.00;60.20;;;;;;5092005;28;20024;-77
2022/04/05 00:35:12;;;;;;;4.45;2.38;;;2.00;60.10;;;;;;5073381;28;20028;-78
2022/04/05 00:37:38;;;;;;;4.75;3.55;;;2.00;59.90;;;;;;5091960;28;20480;-77
2022/04/05 00:40:05;;;;;;;4.25;2.67;;;2.00;59.70;;;;;;5091074;28;20503;-78
2022/04/05 00:42:32;;;;;;;3.63;2.20;;;2.00;59.70;;;;;;5073722;28;20024;-78
2022/04/05 00:44:58;;;;;;;4.93;2.60;;;2.00;59.60;;;;;;5091695;28;20050;-77
2022/04/05 00:47:25;;;;;;;6.18;3.15;;;2.00;59.80;;;;;;5073439;28;20036;-78
2022/04/05 00:49:53;;;;;;;5.03;2.58;;;2.00;59.50;;;;;;5073185;28;20024;-77
2022/04/05 00:52:21;;;;;;;3.30;1.95;;;2.10;59.60;;;;;;5092679;28;20081;-77
2022/04/05 00:54:49;;;;;;;4.63;3.15;;;2.10;59.40;;;;;;5095145;28;20024;-78
2022/04/05 00:57:21;;;;;;;4.03;2.88;;;2.10;59.40;;;;;;5075939;28;20024;-78
2022/04/05 00:59:52;;;;;;;5.60;3.55;;;2.10;59.70;;;;;;5094894;28;20039;-78
2022/04/05 01:02:20;;;;;;;3.88;3.05;;;2.10;59.80;;;;;;5095046;28;20027;-78
2022/04/05 01:04:47;;;;;;;4.65;2.83;;;2.20;60.00;;;;;;5076885;28;20024;-78
2022/04/05 01:07:17;;;;;;;7.25;3.67;;;2.10;60.00;;;;;;5095767;28;20028;-76
2022/04/05 01:09:44;;;;;;;4.13;2.65;;;2.10;60.00;;;;;;5095491;28;20107;-78
2022/04/05 01:12:11;;;;;;;6.93;3.28;;;2.10;60.10;;;;;;5093865;28;20044;-77
2022/04/05 01:14:38;;;;;;;5.07;3.25;;;2.10;60.00;;;;;;5078144;28;20370;-78
2022/04/05 01:17:06;;;;;;;4.13;2.90;;;2.10;60.20;;;;;;5097927;28;20032;-77
2022/04/05 01:19:32;;;;;;;;;;;2.10;60.30;;;;;;5095163;28;20427;-77
2022/04/05 01:21:59;;;;;;;6.05;3.17;;;2.10;60.10;;;;;;5095261;28;19908;-77
2022/04/05 01:24:25;;;;;;;4.38;2.60;;;2.10;60.30;;;;;;5094716;28;20026;-78
2022/04/05 01:26:57;;;;;;;4.80;2.88;;;2.10;60.30;;;;;;5094779;28;20028;-78
2022/04/05 01:29:25;;;;;;;5.07;2.30;;;2.10;60.20;;;;;;5076048;28;20131;-78
2022/04/05 01:31:56;;;;;;;3.97;2.65;;;2.10;60.20;;;;;;5094749;28;20020;-77
2022/04/05 01:34:29;;;;;;;4.70;3.35;;;2.10;60.20;;;;;;5094216;28;20069;-77
2022/04/05 01:36:58;;;;;;;5.90;2.90;;;2.20;60.50;;;;;;5076021;28;20474;-77
2022/04/05 01:39:27;;;;;;;5.40;2.63;;;2.20;60.80;;;;;;5094328;28;20103;-75
2022/04/05 01:41:57;;;;;;;4.93;2.78;;;2.20;60.90;;;;;;5094413;28;20388;-76
2022/04/05 01:44:24;;;;;;;3.63;2.65;;;2.20;60.90;;;;;;5093450;28;20157;-79
2022/04/05 01:46:50;;;;;;;6.38;3.17;;;2.30;61.00;;;;;;5094040;28;20028;-76
2022/04/05 01:49:16;;;;;;;4.43;2.70;;;2.30;61.00;;;;;;5093855;28;20456;-75
2022/04/05 01:51:44;;;;;;;7.88;3.10;;;2.30;61.20;;;;;;5093990;28;20027;-76
2022/04/05 01:54:11;;;;;;;3.58;2.03;;;2.30;61.40;;;;;;5093461;28;20109;-76
2022/04/05 01:56:55;;;;;;;4.28;2.55;;;2.20;60.90;;;;;;5093823;28;20052;-78
2022/04/05 01:59:29;;;;;;;4.32;3.17;;;2.20;61.00;;;;;;5093930;28;20745;-76
2022/04/05 02:01:55;;;;;;;3.92;2.47;;;2.20;61.10;;;;;;5092642;28;20377;-78
2022/04/05 02:04:21;;;;;;;4.72;2.65;;;2.10;61.30;;;;;;5093455;28;20024;-77
2022/04/05 02:06:48;;;;;;;3.80;2.55;;;2.10;61.00;;;;;;5093631;28;20050;-75
2022/04/05 02:09:15;;;;;;;6.77;2.63;;;2.00;61.10;;;;;;5093641;28;20038;-77
2022/04/05 02:11:43;;;;;;;7.30;3.22;;;2.00;61.40;;;;;;5094057;28;20669;-78
2022/04/05 02:14:09;;;;;;;3.92;2.58;;;1.90;61.40;;;;;;5093477;28;20048;-78
2022/04/05 02:16:36;;;;;;;3.55;2.72;;;1.90;61.40;;;;;;5093651;28;20078;-77
2022/04/05 02:19:03;;;;;;;3.88;2.42;;;1.80;61.50;;;;;;5092465;28;20481;-77
2022/04/05 02:21:29;;;;;;;3.33;2.38;;;1.80;61.80;;;;;;5093343;28;20053;-78
2022/04/05 02:23:54;;;;;;;5.47;2.70;;;1.70;61.70;;;;;;5092365;28;20070;-79
2022/04/05 02:26:20;;;;;;;4.38;2.63;;;1.70;61.90;;;;;;5093199;28;20440;-77
2022/04/05 02:28:47;;;;;;;5.63;3.05;;;1.60;62.10;;;;;;5093389;28;20027;-79
2022/04/05 02:31:14;;;;;;;7.32;2.50;;;1.40;62.30;;;;;;5093851;28;20061;-77
2022/04/05 02:33:40;;;;;;;3.97;2.87;;;1.40;62.70;;;;;;5075784;28;20103;-79
2022/04/05 02:36:07;;;;;;;4.03;2.67;;;1.30;63.00;;;;;;5091474;28;20104;-78
2022/04/05 02:38:33;;;;;;;7.53;3.25;;;1.20;63.30;;;;;;5092341;28;20495;-78
2022/04/05 02:40:59;;;;;;;4.95;2.75;;;1.20;63.50;;;;;;5075005;28;20032;-79
2022/04/05 02:43:25;;;;;;;4.97;2.63;;;1.10;63.50;;;;;;5075036;28;20085;-77
2022/04/05 02:45:55;;;;;;;4.28;3.25;;;1.10;63.70;;;;;;5093051;28;20927;-76
2022/04/05 02:48:21;;;;;;;5.20;3.25;;;1.10;63.70;;;;;;5092976;28;20423;-78
2022/04/05 02:50:47;;;;;;;3.97;2.72;;;1.00;63.80;;;;;;5094430;28;20023;-78
2022/04/05 02:53:13;;;;;;;3.65;2.38;;;0.90;64.00;;;;;;5093021;28;20035;-78
2022/04/05 02:55:38;;;;;;;5.32;2.90;;;0.80;64.30;;;;;;5093292;28;20024;-79
2022/04/05 02:58:04;;;;;;;5.72;3.20;;;0.80;64.60;;;;;;5094080;28;20031;-78
2022/04/05 03:00:31;;;;;;;7.25;2.90;;;0.70;64.80;;;;;;5088725;28;20047;-79
2022/04/05 03:02:56;;;;;;;4.50;2.60;;;0.70;64.80;;;;;;5074737;28;20035;-79
2022/04/05 03:05:22;;;;;;;3.35;2.67;;;0.70;65.10;;;;;;5092778;28;20025;-79
2022/04/05 03:07:48;;;;;;;7.30;2.70;;;0.60;65.10;;;;;;5092641;28;20381;-80
2022/04/05 03:10:14;;;;;;;4.20;2.72;;;0.60;65.20;;;;;;5092590;28;20031;-80
2022/04/05 03:12:40;;;;;;;4.82;2.42;;;0.60;65.30;;;;;;5091572;28;20040;-81
2022/04/05 03:15:08;;;;;;;5.38;2.63;;;0.60;65.40;;;;;;5092131;28;20021;-80
2022/04/05 03:17:34;;;;;;;2.67;2.15;;;0.60;65.30;;;;;;5074120;28;20035;-78
2022/04/05 03:20:01;;;;;;;6.07;2.80;;;0.60;65.40;;;;;;5099899;28;20024;-80
2022/04/05 03:22:27;;;;;;;5.22;2.92;;;0.60;65.60;;;;;;5106639;28;20024;-80
2022/04/05 03:24:53;;;;;;;4.55;3.00;;;0.60;65.50;;;;;;5092779;28;20534;-80
2022/04/05 03:27:19;;;;;;;7.57;2.92;;;0.60;65.70;;;;;;5092359;28;20044;-80
2022/04/05 03:29:44;;;;;;;7.03;3.53;;;0.80;65.80;;;;;;5091417;28;20043;-80
2022/04/05 03:32:11;;;;;;;4.43;2.75;;;0.90;65.60;;;;;;5092351;28;20058;-80
2022/04/05 03:34:40;;;;;;;3.90;2.83;;;1.00;65.30;;;;;;5092369;28;20031;-80
2022/04/05 03:37:07;;;;;;;4.88;2.83;;;1.00;65.10;;;;;;5092334;28;20388;-80
2022/04/05 03:39:33;;;;;;;6.23;3.53;;;1.10;65.20;;;;;;5092435;28;20016;-79
2022/04/05 03:41:59;;;;;;;6.40;3.15;;;1.10;65.00;;;;;;5092590;28;20017;-80
2022/04/05 03:44:25;;;;;;;5.63;3.22;;;1.10;65.00;;;;;;5092789;28;20016;-77
2022/04/05 03:46:52;;;;;;;5.03;3.22;;;1.10;64.90;;;;;;5079658;28;20076;-79
2022/04/05 03:49:18;;;;;;;4.38;3.10;;;1.20;65.10;;;;;;5082538;28;20024;-79
2022/04/05 03:51:50;;;;;;;4.97;3.23;;;1.10;64.80;;;;;;5074603;28;20020;-82
2022/04/05 03:54:15;;;;;;;5.20;3.00;;;1.10;64.90;;;;;;5092238;28;20325;-79
2022/04/05 03:56:41;;;;;;;5.68;3.08;;;1.10;65.20;;;;;;5080342;28;20062;-79
2022/04/05 03:59:07;;;;;;;6.82;3.00;;;1.10;65.20;;;;;;5076488;28;20017;-78
2022/04/05 04:01:32;;;;;;;5.05;2.67;;;1.20;65.20;;;;;;5089522;28;20024;-79
2022/04/05 04:03:58;;;;;;;5.25;3.15;;;1.30;65.10;;;;;;5092516;28;20055;-78
2022/04/05 04:06:24;;;;;;;4.40;2.53;;;1.40;64.90;;;;;;5091940;28;20032;-78
2022/04/05 04:08:50;;;;;;;5.10;2.95;;;1.50;64.70;;;;;;5092374;28;20031;-78
2022/04/05 04:11:15;;;;;;;5.75;3.67;;;1.50;64.30;;;;;;5091978;28;20016;-80
2022/04/05 04:13:41;;;;;;;6.88;3.63;;;1.50;64.50;;;;;;5074069;28;20048;-79
2022/04/05 04:16:07;;;;;;;6.22;3.30;;;1.60;64.70;;;;;;5090952;28;20032;-80
2022/04/05 04:18:33;;;;;;;8.00;3.63;;;1.60;64.00;;;;;;5075139;28;20036;-79
2022/04/05 04:20:58;;;;;;;5.57;3.03;;;1.60;64.90;;;;;;5074722;28;20025;-79
2022/04/05 04:23:24;;;;;;;5.97;3.80;;;1.60;64.50;;;;;;5092767;28;20016;-79
2022/04/05 04:25:50;;;;;;;4.13;2.85;;;1.70;64.20;;;;;;5091835;28;20394;-81
2022/04/05 04:28:16;;;;;;;7.78;4.03;;;1.70;63.90;;;;;;5094505;28;20032;-79
2022/04/05 04:30:42;;;;;;;5.10;2.92;;;1.90;64.40;;;;;;5057565;28;20028;-78
2022/04/05 04:33:10;;;;;;;10.95;3.45;;;2.40;63.70;;;;;;5084872;28;20024;-81
2022/04/05 04:35:39;;;;;;;7.70;3.83;;;3.00;63.10;;;;;;5095621;28;20026;-80
2022/04/05 04:38:06;;;;;;;5.47;3.20;;;3.60;60.50;;;;;;5096334;28;20093;-81
2022/04/05 04:40:32;;;;;;;3.47;3.00;;;3.70;59.40;;;;;;5079816;28;20028;-78
2022/04/05 04:42:59;;;;;;;5.05;3.70;;;3.50;59.20;;;;;;5098573;28;20362;-79
2022/04/05 04:45:27;;;;;;;4.80;3.03;;;3.30;59.90;;;;;;5078944;28;20028;-79
2022/04/05 04:47:53;;;;;;;6.05;4.07;;;3.20;60.20;;;;;;5098054;28;20429;-81
2022/04/05 04:50:19;;;;;;;7.05;3.30;;;3.20;60.50;;;;;;5096025;28;20024;-79
2022/04/05 04:52:45;;;;;;;8.50;3.38;;;3.20;60.10;;;;;;5096049;28;20504;-81
2022/04/05 04:55:11;;;;;;;4.18;3.33;;;3.10;60.10;;;;;;5095421;28;20024;-79
2022/04/05 04:57:37;;;;;;;5.75;3.28;;;3.00;60.40;;;;;;5077145;28;20024;-78
2022/04/05 05:00:04;;;;;;;5.85;2.97;;;3.00;60.70;;;;;;5095527;28;20020;-79
2022/04/05 05:02:30;;;;;;;7.97;4.78;;;3.10;60.70;;;;;;5095898;28;20077;-79
2022/04/05 05:04:56;;;;;;;5.13;2.65;;;3.10;60.80;;;;;;5096482;28;20501;-79
2022/04/05 05:07:21;;;;;;;7.10;4.10;;;3.30;60.90;;;;;;5095619;28;20071;-78
2022/04/05 05:09:57;;;;;;;7.82;3.50;;;3.30;60.70;;;;;;5095437;28;20035;-81
2022/04/05 05:12:35;;;;;;;5.03;3.95;;;3.40;60.90;;;;;;5095986;28;20151;-82
2022/04/05 05:15:02;;;;;;;6.32;4.50;;;3.30;60.60;;;;;;5071161;28;20024;-78
2022/04/05 05:17:29;;;;;;;7.30;4.38;;;3.20;61.50;;;;;;5097888;28;20038;-79
2022/04/05 05:19:55;;;;;;;4.65;3.75;;;3.20;61.90;;;;;;5095803;28;20039;-80
2022/04/05 05:22:20;;;;;;;6.07;4.20;;;3.10;62.20;;;;;;5095414;28;20079;-79
2022/04/05 05:24:47;;;;;;;5.22;3.78;;;3.10;62.60;;;;;;5094347;28;20032;-78
2022/04/05 05:27:15;;;;;;;8.48;3.88;;;3.20;62.90;;;;;;5100068;28;20032;-79
2022/04/05 05:29:40;;;;;;;5.45;3.45;;;3.50;62.80;;;;;;5091094;28;20020;-80
2022/04/05 05:32:07;;;;;;;7.30;3.78;;;3.60;62.20;;;;;;5097561;28;20502;-79
2022/04/05 05:34:32;;;;;;;6.75;3.97;;;3.70;61.60;;;;;;5077030;28;20098;-80
2022/04/05 05:36:58;;;;;;;5.38;3.75;;;3.80;61.00;;;;;;5076392;28;20036;-81
2022/04/05 05:39:24;;;;;;;8.75;3.35;;;3.90;60.70;;;;;;5075130;28;20016;-79
2022/04/05 05:41:50;;;;;;;7.30;3.65;;;4.10;60.40;;;;;;5093347;28;20478;-81
2022/04/05 05:44:16;;;;;;;4.40;3.70;;;4.10;59.80;;;;;;5094224;28;20515;-79
2022/04/05 05:46:41;;;;;;;7.43;3.75;;;4.10;60.00;;;;;;5075914;28;20405;-81
2022/04/05 05:49:08;;;;;;;4.40;3.30;;;4.10;59.40;;;;;;5094080;28;20423;-80
2022/04/05 05:51:34;;;;;;;6.03;3.50;;;4.10;59.70;;;;;;5094335;28;20031;-79
2022/04/05 05:54:00;;;;;;;7.38;3.63;;;4.20;59.80;;;;;;5075880;28;20485;-79
2022/04/05 05:56:27;;;;;;;6.15;4.03;;;4.40;59.60;;;;;;5074460;28;20031;-80
2022/04/05 05:58:53;;;;;;;5.93;4.50;;;4.60;59.10;;;;;;5094145;28;20020;-79
2022/04/05 06:01:18;;;;;;;6.32;4.47;;;4.80;58.90;;;;;;5094110;28;20028;-79
2022/04/05 06:03:45;;;;;;;5.45;3.72;;;5.00;58.20;;;;;;5076252;28;20428;-81
2022/04/05 06:06:11;;;;;;;7.30;4.32;;;5.10;58.20;;;;;;5094478;28;20500;-80
2022/04/05 06:08:36;;;;;;;10.40;5.10;;;5.30;57.70;;;;;;5074913;28;20028;-79
2022/04/05 06:11:02;;;;;;;4.70;3.90;;;5.40;57.00;;;;;;5091341;28;20028;-79
2022/04/05 06:13:28;;;;;;;9.38;5.05;;;5.30;56.90;;;;;;5073398;28;20040;-79
2022/04/05 06:15:54;;;;;;;5.28;3.58;;;5.30;57.30;;;;;;5092537;28;20025;-79
2022/04/05 06:18:20;;;;;;;9.75;4.50;;;5.70;57.40;;;;;;5092748;28;20023;-78
2022/04/05 06:20:45;;;;;;;4.28;3.47;;;6.10;56.10;;;;;;5093226;28;20420;-79
2022/04/05 06:23:11;;;;;;;4.90;3.80;;;6.10;54.40;;;;;;5092920;28;20049;-80
2022/04/05 06:25:38;;;;;;;9.38;4.88;;;5.50;55.80;;;;;;5093673;28;20040;-81
2022/04/05 06:28:06;;;;;;;5.30;3.90;;;5.10;56.90;;;;;;5073817;28;20024;-81
2022/04/05 06:30:33;;;;;;;7.85;3.88;;;5.20;58.10;;;;;;5092605;28;20060;-82
2022/04/05 06:33:09;;;;;;;7.13;4.38;;;5.30;57.30;;;;;;5095307;28;20030;-82
2022/04/05 06:35:37;;;;;;;8.85;4.43;;;5.40;57.30;;;;;;5093911;28;20024;-83
2022/04/05 06:38:03;;;;;;;5.13;3.28;;;5.50;57.10;;;;;;5094453;28;20028;-79
2022/04/05 06:40:29;;;;;;;7.75;5.15;;;5.50;57.00;;;;;;5096741;28;20028;-81
2022/04/05 06:42:55;;;;;;;5.13;4.28;;;5.60;57.10;;;;;;5093410;28;20025;-81
2022/04/05 06:45:22;;;;;;;6.07;3.40;;;5.60;57.00;;;;;;5092492;28;20043;-83
2022/04/05 06:47:48;;;;;;;7.25;3.92;;;5.90;56.80;;;;;;5092950;28;20024;-82
2022/04/05 06:50:17;;;;;;;6.28;4.40;;;5.90;56.20;;;;;;5093188;28;20398;-81
2022/04/05 06:52:43;;;;;;;11.07;4.85;;;6.10;55.90;;;;;;5095334;28;20036;-82
2022/04/05 06:55:10;;;;;;;8.05;4.63;;;6.30;55.40;;;;;;5101925;28;20020;-81
2022/04/05 06:57:36;;;;;;;7.85;5.65;;;6.50;55.10;;;;;;5098726;28;20024;-81
2022/04/05 07:00:08;;;;;;;6.55;3.78;;;6.60;54.80;;;;;;5094256;28;20097;-82
2022/04/05 07:02:34;;;;;;;4.68;3.95;;;6.60;54.20;;;;;;5092375;28;20030;-82
2022/04/05 07:05:00;;;;;;;4.93;3.47;;;6.60;54.60;;;;;;5075136;28;20035;-82
2022/04/05 07:07:26;;;;;;;6.05;3.67;;;6.50;54.00;;;;;;5094294;28;20093;-82
2022/04/05 07:09:51;;;;;;;8.57;3.92;;;6.20;55.00;;;;;;5078793;28;20440;-82
2022/04/05 07:12:17;;;;;;;7.63;4.18;;;6.10;55.00;;;;;;5093474;28;20501;-83
2022/04/05 07:14:43;;;;;;;6.10;4.35;;;6.30;55.20;;;;;;5093299;28;20413;-82
2022/04/05 07:17:10;;;;;;;5.88;4.75;;;6.60;54.30;;;;;;5074954;28;20234;-82
2022/04/05 07:19:35;;;;;;;6.00;3.67;;;6.80;54.30;;;;;;5093183;28;20023;-82
2022/04/05 07:22:02;;;;;;;6.70;4.15;;;7.10;53.30;;;;;;5093279;28;20028;-83
2022/04/05 07:24:29;;;;;;;4.57;4.10;;;6.90;52.90;;;;;;5079438;28;20069;-82
2022/04/05 07:26:55;;;;;;;5.30;4.15;;;6.60;52.80;;;;;;5079668;28;20039;-83
2022/04/05 07:29:21;;;;;;;5.60;4.22;;;6.30;53.80;;;;;;5075864;28;20024;-81
2022/04/05 07:31:47;;;;;;;6.18;4.10;;;6.50;54.30;;;;;;5094292;28;20059;-84
2022/04/05 07:34:13;;;;;;;8.27;4.70;;;7.00;54.00;;;;;;5092532;28;20052;-84
2022/04/05 07:36:39;;;;;;;6.50;4.93;;;7.80;52.10;;;;;;5092824;28;20036;-81
2022/04/05 07:39:05;;;;;;;7.68;4.65;;;8.30;51.00;;;;;;5093550;28;20081;-82
2022/04/05 07:41:30;;;;;;;5.00;3.72;;;9.10;49.90;;;;;;5094180;28;20415;-82
2022/04/05 07:43:56;;;;;;;7.00;3.67;;;9.90;47.70;;;;;;5083702;28;20043;-83
2022/04/05 07:46:22;;;;;;;7.28;3.47;;;10.20;46.90;;;;;;5054472;28;20032;-83
2022/04/05 07:48:48;;;;;;;4.15;3.63;;;10.20;45.80;;;;;;5073022;28;20430;-84
2022/04/05 07:51:15;;;;;;;5.93;4.55;;;10.70;44.80;;;;;;5072681;28;20111;-83
2022/04/05 07:53:41;;;;;;;7.20;4.40;;;10.90;43.80;;;;;;5072713;28;20191;-83
2022/04/05 07:56:08;;;;;;;8.32;4.45;;;11.00;43.40;;;;;;5073261;28;20389;-83
2022/04/05 07:58:34;;;;;;;7.03;4.63;;;11.60;43.10;;;;;;5073121;28;20027;-82
2022/04/05 08:00:59;;;;;;;8.65;5.82;;;12.60;41.30;;;;;;5072635;28;20502;-83
2022/04/05 08:03:27;;;;;;;5.88;3.78;;;13.70;40.90;;;;;;5098977;28;20038;-84
2022/04/05 08:05:53;;;;;;;6.68;3.92;;;14.50;37.40;;;;;;5098957;28;20508;-82
2022/04/05 08:08:19;;;;;;;5.47;3.45;;;13.50;37.80;;;;;;5097733;28;20024;-82
2022/04/05 08:10:45;;;;;;;6.32;5.22;;;13.20;37.60;;;;;;5096776;28;20024;-85
2022/04/05 08:13:11;;;;;;;5.93;3.90;;;12.60;38.90;;;;;;5096728;28;20086;-82
2022/04/05 08:15:39;;;;;;;5.10;4.60;;;12.30;38.90;;;;;;5096227;28;20020;-82
2022/04/05 08:18:06;;;;;;;5.55;3.95;;;12.30;39.10;;;;;;5098915;28;20020;-85
2022/04/05 08:20:33;;;;;;;7.43;4.57;;;11.90;39.50;;;;;;5098426;28;20100;-83
2022/04/05 08:22:59;;;;;;;6.68;3.95;;;12.40;39.90;;;;;;5096779;28;20024;-83
2022/04/05 08:25:25;;;;;;;6.47;4.30;;;12.90;39.00;;;;;;5096469;28;20077;-82
2022/04/05 08:27:51;;;;;;;7.07;5.30;;;13.00;37.90;;;;;;5096509;28;20165;-83
2022/04/05 08:30:18;;;;;;;8.30;5.05;;;12.90;38.50;;;;;;5097425;28;20024;-82
2022/04/05 08:32:46;;;;;;;;;;;13.60;37.80;;;;;;5101930;28;20077;-83
2022/04/05 08:35:13;;;;;;;;;;;13.50;37.20;;;;;;5081085;28;20336;-81
2022/04/05 08:37:39;;;;;;;;;;;13.20;39.50;;;;;;5077683;28;19903;-84
2022/04/05 08:40:08;;;;;;;;;;;13.50;38.60;;;;;;5096425;28;19949;-84
2022/04/05 08:42:35;;;;;;;;;;;14.10;38.40;;;;;;5096393;28;19910;-83
2022/04/05 08:45:06;;;;;;;;;;;14.30;36.10;;;;;;5096407;28;19939;-84
2022/04/05 08:47:34;;;;;;;;;;;14.10;37.00;;;;;;5096366;28;19916;-83
2022/04/05 08:50:01;;;;;;;;;;;13.40;36.40;;;;;;5095335;28;19908;-82
2022/04/05 08:52:26;;;;;;;;;;;12.50;37.50;;;;;;5095915;28;19912;-83
2022/04/05 08:54:52;;;;;;;;;;;12.20;38.70;;;;;;5077621;28;19908;-82
2022/04/05 08:57:17;;;;;;;;;;;11.90;38.80;;;;;;5076768;28;19908;-83
2022/04/05 08:59:43;;;;;;;;;;;11.90;39.10;;;;;;5096277;28;19908;-82
2022/04/05 09:02:09;;;;;;;;;;;12.50;39.00;;;;;;5098915;28;20039;-82
2022/04/05 09:04:34;;;;;;;;;;;13.10;37.40;;;;;;5104077;28;19911;-85
2022/04/05 09:07:19;;;;;;;;;;;12.60;36.50;;;;;;5100083;28;19912;-82
2022/04/05 09:09:45;;;;;;;;;;;12.60;38.20;;;;;;5097988;28;19927;-84
2022/04/05 09:12:17;;;;;;;;;;;12.80;36.80;;;;;;5096710;28;19911;-82
2022/04/05 09:14:43;;;;;;;;;;;13.10;36.80;;;;;;5077408;28;19921;-84
2022/04/05 09:17:09;;;;;;;;;;;13.10;35.70;;;;;;5096007;28;19911;-83
2022/04/05 09:19:42;;;;;;;;;;;12.70;35.10;;;;;;5096022;28;19903;-82
2022/04/05 09:22:08;;;;;;;;;;;12.30;35.70;;;;;;5076159;28;19914;-83
2022/04/05 09:24:35;;;;;;;;;;;12.10;35.00;;;;;;5096076;28;19908;-81
2022/04/05 09:27:01;;;;;;;;;;;11.10;35.90;;;;;;5095870;28;19912;-82
2022/04/05 09:29:43;;;;;;;;;;;10.30;37.60;;;;;;5095322;28;19930;-84
2022/04/05 09:32:09;;;;;;;;;;;10.60;38.80;;;;;;5095046;28;19908;-81
2022/04/05 09:34:49;;;;;;;;;;;11.60;38.20;;;;;;5095489;28;20278;-82
2022/04/05 09:37:14;;;;;;;;;;;11.40;37.80;;;;;;5095204;28;19946;-83
2022/04/05 09:39:41;;;;;;;;;;;10.70;37.80;;;;;;5075906;28;19948;-82
2022/04/05 09:42:08;;;;;;;;;;;10.00;38.80;;;;;;5097872;28;19974;-85
2022/04/05 09:44:38;;;;;;;;;;;9.90;39.80;;;;;;5096413;28;19904;-81
2022/04/05 09:47:08;;;;;;;;;;;10.20;39.60;;;;;;5096048;28;20296;-82
2022/04/05 09:49:38;;;;;;;;;;;10.20;39.50;;;;;;5094844;28;20365;-81
2022/04/05 09:52:22;;;;;;;;;;;10.40;39.10;;;;;;5095006;28;20045;-85
2022/04/05 09:54:48;;;;;;;;;;;10.10;39.60;;;;;;5076855;28;19908;-84
2022/04/05 09:57:14;;;;;;;;;;;10.00;40.30;;;;;;5076133;28;19995;-85
2022/04/05 09:59:41;;;;;;;;;;;10.20;40.10;;;;;;5095444;28;19981;-82
2022/04/05 10:02:08;;;;;;;;;;;10.40;39.80;;;;;;5095840;28;19946;-82
2022/04/05 10:04:57;;;;;;;;;;;10.90;39.50;;;;;;5095876;28;19926;-84
2022/04/05 10:07:23;;;;;;;;;;;10.70;38.60;;;;;;5095517;28;19916;-82
2022/04/05 10:09:49;;;;;;;;;;;10.00;39.60;;;;;;5094894;28;19904;-83
2022/04/05 10:12:16;;;;;;;;;;;10.40;40.00;;;;;;5094683;28;19919;-82
2022/04/05 10:14:42;;;;;;;;;;;10.30;39.50;;;;;;5095157;28;19912;-82
2022/04/05 10:17:09;;;;;;;;;;;10.20;39.70;;;;;;5094827;28;20003;-83
2022/04/05 10:19:35;;;;;;;;;;;10.00;40.10;;;;;;5095455;28;19959;-84
2022/04/05 10:22:01;;;;;;;;;;;9.70;40.10;;;;;;5077477;28;19912;-85
2022/04/05 10:24:28;;;;;;;;;;;9.00;40.50;;;;;;5096662;28;19926;-83
2022/04/05 10:26:53;;;;;;;;;;;8.80;41.30;;;;;;5100474;28;19969;-82
2022/04/05 10:29:20;;;;;;;;;;;8.50;42.20;;;;;;5083018;28;20302;-82
2022/04/05 10:31:48;;;;;;;;;;;8.30;42.10;;;;;;5097702;28;19915;-83
2022/04/05 10:34:20;;;;;;;;;;;8.20;42.60;;;;;;5094440;28;20056;-83
2022/04/05 10:37:06;;;;;;;;;;;8.20;42.90;;;;;;5096192;28;19912;-84
2022/04/05 10:39:32;;;;;;;;;;;8.10;42.40;;;;;;5076321;28;19908;-83
2022/04/05 10:42:10;;;;;;;;;;;7.70;43.50;;;;;;5094426;28;19908;-83
2022/04/05 10:44:36;;;;;;;;;;;7.70;44.00;;;;;;5094279;28;20048;-83
2022/04/05 10:47:04;;;;;;;;;;;7.70;43.70;;;;;;5094259;28;19955;-84
2022/04/05 10:49:32;;;;;;;;;;;7.40;43.90;;;;;;5093981;28;19912;-83
2022/04/05 10:52:26;;;;;;;;;;;7.20;45.00;;;;;;5076028;28;20003;-83
2022/04/05 10:55:13;;;;;;;;;;;7.40;45.20;;;;;;5098277;28;19912;-82
2022/04/05 10:57:39;;;;;;;;;;;7.60;44.80;;;;;;5097241;28;19991;-83
2022/04/05 11:00:05;;;;;;;;;;;7.50;44.80;;;;;;5097598;28;19908;-81
2022/04/05 11:02:33;;;;;;;;;;;7.70;45.00;;;;;;5076988;28;20034;-84
2022/04/05 11:05:14;;;;;;;;;;;7.70;44.10;;;;;;5094264;28;19904;-82
2022/04/05 11:07:52;;;;;;;;;;;7.70;43.80;;;;;;5094937;28;20343;-82
2022/04/05 11:10:21;;;;;;;;;;;7.50;44.50;;;;;;5095813;28;19908;-82
2022/04/05 11:12:47;;;;;;;;;;;7.60;44.40;;;;;;5098049;28;19920;-82
2022/04/05 11:15:16;;;;;;;;;;;7.50;44.40;;;;;;5096295;28;19919;-82
2022/04/05 11:17:42;;;;;;;;;;;7.40;44.50;;;;;;5097202;28;19908;-82
2022/04/05 11:20:09;;;;;;;;;;;7.40;44.70;;;;;;5094691;28;19911;-82
2022/04/05 11:22:36;;;;;;;;;;;7.40;44.50;;;;;;5093815;28;19903;-83
2022/04/05 11:25:08;;;;;;;;;;;7.40;44.90;;;;;;5093757;28;19904;-82
2022/04/05 11:27:48;;;;;;;;;;;7.50;45.00;;;;;;5093717;28;19916;-81
2022/04/05 11:30:23;;;;;;;;;;;7.60;44.70;;;;;;5092443;28;20040;-81
2022/04/05 11:33:13;;;;;;;;;;;7.40;44.30;;;;;;5094948;28;19905;-81
2022/04/05 11:35:38;;;;;;;;;;;7.30;44.70;;;;;;5095882;28;19904;-83
2022/04/05 11:38:04;;;;;;;;;;;7.40;45.10;;;;;;5094819;28;19911;-80
2022/04/05 11:40:30;;;;;;;;;;;7.50;44.70;;;;;;5074971;28;19904;-81
2022/04/05 11:43:00;;;;;;;;;;;7.50;44.60;;;;;;5093339;28;19904;-82
2022/04/05 11:45:26;;;;;;;;;;;7.40;44.80;;;;;;5093248;28;19910;-83
2022/04/05 11:47:52;;;;;;;;;;;7.40;45.40;;;;;;5092211;28;19996;-83
2022/04/05 11:50:19;;;;;;;;;;;7.50;46.10;;;;;;5093400;28;19957;-82
2022/04/05 11:52:44;;;;;;;;;;;7.20;46.70;;;;;;5093001;28;20345;-83
2022/04/05 11:58:24;;;;;;;;;;;6.70;48.00;;;;;;5048138;28;19910;-81
2022/04/05 12:00:50;;;;;;;;;;;6.60;48.20;;;;;;5092830;28;20349;-85
2022/04/05 12:03:16;;;;;;;;;;;6.60;48.10;;;;;;5073515;28;20331;-85
2022/04/05 12:05:46;;;;;;;;;;;6.40;49.10;;;;;;5074825;28;19920;-81
2022/04/05 12:08:15;;;;;;;;;;;6.30;49.00;;;;;;5074237;28;20368;-82
2022/04/05 12:10:41;;;;;;;;;;;6.20;49.40;;;;;;5092706;28;19911;-83
2022/04/05 12:13:07;;;;;;;;;;;6.30;49.70;;;;;;5074196;28;20022;-84
2022/04/05 12:15:34;;;;;;;;;;;6.40;48.90;;;;;;5074778;28;19977;-83
2022/04/05 12:18:20;;;;;;;;;;;6.40;48.40;;;;;;5074022;28;20392;-82
2022/04/05 12:20:54;;;;;;;;;;;6.40;48.40;;;;;;5093081;28;20011;-82
2022/04/05 12:23:20;;;;;;;;;;;6.40;48.50;;;;;;5094109;28;19904;-82
2022/04/05 12:26:05;;;;;;;;;;;6.50;48.80;;;;;;5094710;28;19915;-81
2022/04/05 12:28:31;;;;;;;;;;;6.70;48.90;;;;;;5094278;28;19908;-83
2022/04/05 12:31:04;;;;;;;;;;;6.80;47.80;;;;;;5095769;28;19908;-83
2022/04/05 12:33:30;;;;;;;;;;;6.80;48.20;;;;;;5092755;28;19947;-83
2022/04/05 12:35:55;;;;;;;;;;;6.90;48.10;;;;;;5092785;28;19904;-81
2022/04/05 12:38:21;;;;;;;;;;;6.90;47.90;;;;;;5091281;28;19908;-82
2022/04/05 12:40:47;;;;;;;;;;;7.00;47.80;;;;;;5092574;28;19908;-83
2022/04/05 12:43:16;;;;;;;;;;;6.90;47.90;;;;;;5093074;28;19908;-82
2022/04/05 12:45:42;;;;;;;;;;;6.70;47.50;;;;;;5092162;28;19935;-82
2022/04/05 12:48:25;;;;;;;;;;;6.60;47.70;;;;;;5093158;28;20365;-82
2022/04/05 12:50:52;;;;;;;;;;;6.50;48.40;;;;;;5096314;28;19912;-82
2022/04/05 12:53:25;;;;;;;;;;;6.60;48.30;;;;;;5096078;28;20306;-83
2022/04/05 12:56:17;;;;;;;;;;;6.40;48.30;;;;;;5095116;28;20006;-83
2022/04/05 12:58:45;;;;;;;;;;;6.30;48.80;;;;;;5092004;28;20003;-81
2022/04/05 13:01:29;;;;;;;;;;;6.20;49.30;;;;;;5077536;28;19910;-83
2022/04/05 13:03:56;;;;;;;;;;;6.10;49.80;;;;;;5096090;28;19946;-84
2022/04/05 13:06:29;;;;;;;;;;;6.10;50.00;;;;;;5077218;28;20786;-83
2022/04/05 13:09:05;;;;;;;;;;;6.00;49.80;;;;;;5095603;28;20341;-81
2022/04/05 13:11:32;;;;;;;;;;;6.00;49.80;;;;;;5095410;28;19908;-81
2022/04/05 13:14:04;;;;;;;;;;;6.00;50.20;;;;;;5095321;28;19915;-84
2022/04/05 13:16:30;;;;;;;;;;;6.10;50.30;;;;;;5095583;28;19904;-82
2022/04/05 13:19:06;;;;;;;;;;;6.10;50.60;;;;;;5096147;28;19904;-82
2022/04/05 13:21:39;;;;;;;;;;;6.00;50.10;;;;;;5096781;28;19911;-82
2022/04/05 13:24:05;;;;;;;;;;;6.00;50.90;;;;;;5081028;28;19904;-82
2022/04/05 13:26:31;;;;;;;;;;;6.00;51.00;;;;;;5099122;28;19912;-81
2022/04/05 13:29:16;;;;;;;;;;;6.00;51.20;;;;;;5090813;28;19912;-80
2022/04/05 13:31:46;;;;;;;;;;;6.00;51.10;;;;;;5059140;28;19904;-82
2022/04/05 13:34:13;;;;;;;;;;;6.00;51.30;;;;;;5057789;28;19953;-83